Time;durP1;ratioP1;P1;durP2;ratioP2;P2;SDS_P1;SDS_P2;PMS_P1;PMS_P2;Temp;Humidity;BMP_temperature;BMP_pressure;BME280_temperature;BME280_humidity;BME280_pressure;Samples;Min_cycle;Max_cycle;Signal;HPM_P1;HPM_P2
2022/08/03 00:00:31;;;;;;;7.63;3.40;;;;;;;20.90;55.98;99135.94;5164831;28;20535;-70
2022/08/03 00:03:22;;;;;;;7.60;3.67;;;;;;;20.91;56.24;99138.44;5168764;28;20120;-70
2022/08/03 00:06:12;;;;;;;5.75;3.35;;;;;;;20.97;56.22;99139.47;5164675;28;20182;-71
2022/08/03 00:09:04;;;;;;;7.22;3.70;;;;;;;21.01;56.31;99141.53;5184019;28;20053;-70
2022/08/03 00:11:54;;;;;;;9.98;3.80;;;;;;;20.84;56.60;99141.13;5173992;28;20428;-69
2022/08/03 00:14:44;;;;;;;5.38;3.67;;;;;;;20.77;56.81;99142.97;5179008;28;20112;-69
2022/08/03 00:17:34;;;;;;;8.23;3.35;;;;;;;20.68;57.18;99130.75;5164536;28;20176;-69
2022/08/03 00:20:43;;;;;;;7.60;3.58;;;;;;;20.62;56.72;99127.00;5164014;28;20243;-70
2022/08/03 00:23:33;;;;;;;5.10;3.65;;;;;;;20.65;57.05;99133.84;5170824;28;20610;-69
2022/08/03 00:26:42;;;;;;;5.05;3.55;;;;;;;20.61;56.95;99136.13;5179886;28;20152;-69
2022/08/03 00:29:32;;;;;;;6.05;3.55;;;;;;;20.65;56.89;99128.47;5164807;28;20532;-69
2022/08/03 00:32:42;;;;;;;10.18;3.45;;;;;;;20.51;57.40;99138.38;5178868;28;20072;-70
2022/08/03 00:35:34;;;;;;;5.65;3.55;;;;;;;20.51;57.74;99137.56;5168396;28;20476;-72
2022/08/03 00:38:39;;;;;;;7.13;3.47;;;;;;;20.50;57.28;99136.72;5169424;28;20057;-73
2022/08/03 00:41:29;;;;;;;4.53;3.65;;;;;;;20.45;57.57;99133.78;5163998;28;20518;-73
2022/08/03 00:44:20;;;;;;;8.85;3.92;;;;;;;20.41;57.58;99135.22;5163180;28;20046;-70
2022/08/03 00:47:11;;;;;;;5.22;3.45;;;;;;;20.37;57.94;99115.13;5179658;28;20045;-71
2022/08/03 00:50:02;;;;;;;5.25;3.47;;;;;;;20.23;58.01;99122.34;5169403;28;20050;-73
2022/08/03 00:52:54;;;;;;;6.07;3.70;;;;;;;20.09;58.74;99134.91;5167095;28;20618;-70
2022/08/03 00:55:44;;;;;;;3.88;3.47;;;;;;;20.28;58.57;99136.03;5175954;28;20059;-71
2022/08/03 00:58:35;;;;;;;5.07;3.60;;;;;;;20.29;58.24;99134.16;5167060;28;20077;-70
2022/08/03 01:01:24;;;;;;;4.22;3.33;;;;;;;20.30;57.79;99127.75;5178713;28;20061;-73
2022/08/03 01:04:21;;;;;;;6.75;3.70;;;;;;;20.22;58.17;99130.63;5183425;28;20124;-70
2022/08/03 01:07:26;;;;;;;5.20;3.78;;;;;;;20.06;59.36;99126.41;5169665;28;20081;-70
2022/08/03 01:10:27;;;;;;;6.40;3.70;;;;;;;20.32;58.59;99131.88;5164662;28;20056;-73
2022/08/03 01:13:27;;;;;;;5.47;3.75;;;;;;;20.11;58.32;99113.19;5170257;28;20065;-73
2022/08/03 01:16:50;;;;;;;4.93;3.70;;;;;;;20.10;59.38;99123.13;5173664;28;20058;-71
2022/08/03 01:19:53;;;;;;;7.25;3.53;;;;;;;20.07;59.50;99131.63;5183053;28;20615;-71
2022/08/03 01:23:09;;;;;;;3.90;3.50;;;;;;;20.13;58.36;99119.19;5181679;28;20057;-72
2022/08/03 01:26:13;;;;;;;4.72;3.65;;;;;;;20.11;59.26;99123.97;5171954;28;20056;-71
2022/08/03 01:29:31;;;;;;;7.55;4.10;;;;;;;20.21;58.96;99123.59;5166642;28;20071;-73
2022/08/03 01:32:47;;;;;;;6.45;3.78;;;;;;;20.20;58.93;99122.75;5168940;28;20069;-72
2022/08/03 01:35:57;;;;;;;7.30;3.67;;;;;;;20.09;58.88;99099.94;5163155;28;20057;-71
2022/08/03 01:38:54;;;;;;;11.48;4.38;;;;;;;20.01;59.56;99112.75;5162903;28;20208;-72
2022/08/03 01:41:58;;;;;;;7.20;3.78;;;;;;;20.00;58.93;99108.38;5164042;28;20057;-73
2022/08/03 01:44:51;;;;;;;10.55;4.05;;;;;;;20.24;59.51;99107.03;5174409;28;20046;-72
2022/08/03 01:47:44;;;;;;;7.10;3.87;;;;;;;20.16;59.43;99110.72;5164762;28;20046;-70
2022/08/03 01:50:35;;;;;;;6.05;3.80;;;;;;;20.28;59.14;99100.19;5171121;28;20429;-71
2022/08/03 01:53:26;;;;;;;7.05;4.40;;;;;;;20.22;58.85;99103.69;5173740;28;20412;-73
2022/08/03 01:56:21;;;;;;;6.13;4.50;;;;;;;20.09;58.98;99107.19;5167648;28;20504;-70
2022/08/03 01:59:15;;;;;;;6.90;3.88;;;;;;;20.19;58.85;99104.91;5166892;28;20583;-70
2022/08/03 02:02:07;;;;;;;7.32;4.70;;;;;;;19.96;59.39;99094.50;5167942;28;20199;-72
2022/08/03 02:05:18;;;;;;;6.72;4.13;;;;;;;19.70;60.42;99093.38;5165646;28;20520;-71
2022/08/03 02:08:11;;;;;;;8.68;4.22;;;;;;;19.65;61.02;99098.53;5168483;28;20054;-73
2022/08/03 02:11:04;;;;;;;8.63;3.80;;;;;;;19.65;60.50;99103.09;5168800;28;20050;-71
2022/08/03 02:13:57;;;;;;;6.35;4.07;;;;;;;19.79;60.18;99101.28;5177457;28;20042;-74
2022/08/03 02:16:49;;;;;;;5.50;3.95;;;;;;;19.67;60.51;99099.16;5172649;28;20054;-71
2022/08/03 02:19:41;;;;;;;5.47;4.25;;;;;;;19.71;59.53;99104.97;5178571;28;20050;-71
2022/08/03 02:22:32;;;;;;;5.63;3.83;;;;;;;19.57;60.58;99101.38;5161378;28;20073;-72
2022/08/03 02:25:23;;;;;;;7.13;4.03;;;;;;;19.61;60.06;99089.16;5165429;28;20054;-73
2022/08/03 02:28:19;;;;;;;6.18;4.07;;;;;;;19.55;59.71;99091.81;5176199;28;20360;-72
2022/08/03 02:31:21;;;;;;;8.55;4.40;;;;;;;19.58;59.39;99102.19;5161864;28;20120;-71
2022/08/03 02:34:14;;;;;;;6.97;4.75;;;;;;;19.57;60.37;99103.19;5166848;28;20042;-71
2022/08/03 02:37:07;;;;;;;6.07;4.32;;;;;;;19.69;60.24;99102.47;5170200;28;20054;-71
2022/08/03 02:40:01;;;;;;;5.50;3.88;;;;;;;19.54;60.48;99098.25;5176741;28;20164;-73
2022/08/03 02:42:56;;;;;;;6.82;3.95;;;;;;;19.46;60.81;99102.72;5161318;28;20504;-71
2022/08/03 02:45:48;;;;;;;5.90;4.07;;;;;;;19.38;60.53;99092.16;5178274;28;20053;-71
2022/08/03 02:48:41;;;;;;;6.32;3.95;;;;;;;19.48;60.30;99102.56;5173565;28;20139;-71
2022/08/03 02:51:34;;;;;;;8.40;3.88;;;;;;;19.24;61.06;99098.47;5161150;28;20189;-72
2022/08/03 02:54:25;;;;;;;6.82;3.95;;;;;;;19.28;60.52;99091.69;5166458;28;20053;-72
2022/08/03 02:57:19;;;;;;;4.95;3.60;;;;;;;19.33;60.83;99093.75;5178287;28;20570;-70
2022/08/03 03:00:11;;;;;;;4.18;3.67;;;;;;;19.19;61.20;99100.91;5175755;28;20081;-74
2022/08/03 03:03:17;;;;;;;6.07;4.20;;;;;;;19.26;60.83;99099.09;5165699;28;20089;-74
2022/08/03 03:06:10;;;;;;;5.30;4.00;;;;;;;19.25;60.87;99092.91;5181740;28;20477;-70
2022/08/03 03:09:01;;;;;;;5.65;3.95;;;;;;;19.30;60.99;99091.47;5168036;28;20523;-72
2022/08/03 03:11:52;;;;;;;6.18;3.88;;;;;;;19.05;60.70;99075.81;5161455;28;20259;-71
2022/08/03 03:14:43;;;;;;;4.47;3.80;;;;;;;19.01;60.39;99082.63;5166779;28;20061;-74
2022/08/03 03:17:36;;;;;;;5.72;4.07;;;;;;;19.11;60.53;99099.22;5168132;28;20061;-73
2022/08/03 03:20:27;;;;;;;4.93;3.88;;;;;;;19.07;60.82;99105.16;5182683;28;20065;-70
2022/08/03 03:23:21;;;;;;;4.93;3.90;;;;;;;18.93;61.53;99098.88;5165410;28;20429;-73
2022/08/03 03:26:13;;;;;;;4.80;3.88;;;;;;;18.99;60.98;99095.41;5164819;28;20124;-71
2022/08/03 03:29:05;;;;;;;6.47;4.13;;;;;;;18.99;60.31;99092.72;5178526;28;20131;-71
2022/08/03 03:31:56;;;;;;;5.18;4.22;;;;;;;19.06;61.46;99098.97;5168912;28;20091;-71
2022/08/03 03:34:46;;;;;;;6.30;4.13;;;;;;;19.11;61.16;99093.84;5185288;28;20424;-72
2022/08/03 03:37:36;;;;;;;6.47;4.60;;;;;;;18.85;62.90;99091.78;5168260;28;20061;-71
2022/08/03 03:40:27;;;;;;;7.43;4.13;;;;;;;19.03;61.52;99096.66;5167868;28;20068;-73
2022/08/03 03:43:17;;;;;;;4.65;3.85;;;;;;;18.91;61.98;99085.66;5175994;28;20053;-73
2022/08/03 03:46:11;;;;;;;4.82;3.78;;;;;;;18.92;61.58;99095.34;5179918;28;20050;-70
2022/08/03 03:49:01;;;;;;;4.72;3.75;;;;;;;18.90;61.80;99088.50;5165089;28;20425;-72
2022/08/03 03:51:55;;;;;;;5.82;4.05;;;;;;;18.85;61.44;99096.34;5176538;28;20056;-71
2022/08/03 03:54:45;;;;;;;4.85;4.00;;;;;;;19.05;61.71;99099.19;5180944;28;20190;-71
2022/08/03 03:57:36;;;;;;;6.22;4.00;;;;;;;18.98;61.62;99091.91;5164772;28;20366;-71
2022/08/03 04:00:26;;;;;;;7.13;4.13;;;;;;;18.83;60.91;99093.00;5180570;28;20081;-71
2022/08/03 04:03:16;;;;;;;6.20;4.20;;;;;;;18.79;61.74;99097.94;5172531;28;20038;-70
2022/08/03 04:12:28;;;;;;;8.75;4.10;;;;;;;18.60;63.29;99096.69;5164469;28;20081;-70
2022/08/03 04:15:21;;;;;;;6.10;3.92;;;;;;;18.63;63.42;99101.69;5176759;28;20176;-69
2022/08/03 04:18:14;;;;;;;8.70;4.68;;;;;;;18.83;62.52;99103.75;5165349;28;20046;-70
2022/08/03 04:21:08;;;;;;;5.80;4.00;;;;;;;18.76;61.83;99107.22;5164462;28;20065;-70
2022/08/03 04:24:02;;;;;;;6.72;4.30;;;;;;;18.77;62.38;99091.91;5166536;28;20073;-70
2022/08/03 04:26:54;;;;;;;7.32;4.22;;;;;;;18.84;62.52;99111.63;5183398;28;20064;-69
2022/08/03 04:29:48;;;;;;;8.30;4.47;;;;;;;18.78;61.79;99102.47;5181994;28;20635;-69
2022/08/03 04:32:39;;;;;;;4.97;3.75;;;;;;;18.74;62.63;99103.91;5173242;28;20127;-71
2022/08/03 04:35:35;;;;;;;5.57;4.22;;;;;;;18.74;62.51;99095.84;5196368;28;20053;-69
2022/08/03 04:39:00;;;;;;;5.78;3.97;;;;;;;18.94;62.76;99116.66;5173758;28;20081;-70
2022/08/03 04:41:53;;;;;;;6.75;4.00;;;;;;;18.86;62.93;99106.88;5166672;28;20171;-70
2022/08/03 04:44:58;;;;;;;6.80;4.53;;;;;;;19.13;62.81;99115.97;5166953;28;20045;-70
2022/08/03 04:47:51;;;;;;;5.90;4.07;;;;;;;19.27;61.88;99116.06;5181963;28;20057;-69
2022/08/03 04:50:42;;;;;;;7.13;4.55;;;;;;;19.61;61.44;99116.06;5179364;28;20053;-69
2022/08/03 04:53:32;;;;;;;4.40;3.83;;;;;;;19.70;60.98;99125.66;5179084;28;20077;-68
2022/08/03 04:56:23;;;;;;;5.88;4.32;;;;;;;19.93;60.55;99121.81;5175325;28;20053;-69
2022/08/03 04:59:13;;;;;;;4.57;3.63;;;;;;;19.96;60.30;99129.50;5164010;28;20046;-69
2022/08/03 05:02:03;;;;;;;8.05;4.57;;;;;;;20.17;60.36;99121.28;5170296;28;20048;-67
2022/08/03 05:04:53;;;;;;;5.47;4.18;;;;;;;20.27;60.08;99120.09;5179771;28;20057;-68
2022/08/03 05:07:43;;;;;;;8.07;4.18;;;;;;;20.40;59.75;99123.63;5162380;28;20424;-68
2022/08/03 05:10:34;;;;;;;6.00;4.55;;;;;;;20.48;59.21;99117.22;5177587;28;20058;-69
2022/08/03 05:13:24;;;;;;;5.47;4.20;;;;;;;20.56;58.54;99102.75;5163786;28;20046;-68
2022/08/03 05:16:14;;;;;;;5.60;3.92;;;;;;;20.52;59.32;99121.19;5174295;28;20045;-68
2022/08/03 05:19:04;;;;;;;8.18;4.20;;;;;;;20.59;59.18;99122.00;5165071;28;20116;-69
2022/08/03 05:21:56;;;;;;;6.55;4.45;;;;;;;20.52;59.31;99121.19;5168054;28;20520;-68
2022/08/03 05:24:47;;;;;;;5.65;3.92;;;;;;;20.84;58.41;99132.22;5173391;28;20046;-69
2022/08/03 05:27:37;;;;;;;9.90;4.35;;;;;;;20.65;58.79;99126.59;5168123;28;20054;-69
2022/08/03 05:30:27;;;;;;;7.60;4.60;;;;;;;20.70;58.65;99128.69;5170885;28;20496;-70
2022/08/03 05:33:23;;;;;;;9.73;4.30;;;;;;;20.85;58.08;99120.38;5171003;28;20057;-69
2022/08/03 05:36:13;;;;;;;6.90;4.18;;;;;;;20.77;57.93;99124.13;5182941;28;20046;-68
2022/08/03 05:39:04;;;;;;;9.93;4.68;;;;;;;21.00;57.90;99131.78;5165780;28;20463;-71
2022/08/03 05:41:54;;;;;;;6.75;4.07;;;;;;;20.99;58.03;99122.06;5172808;28;20053;-68
2022/08/03 05:44:45;;;;;;;8.57;4.32;;;;;;;21.13;57.67;99130.97;5172717;28;20120;-67
2022/08/03 05:47:35;;;;;;;7.10;4.85;;;;;;;21.19;56.68;99105.00;5159172;28;20492;-68
2022/08/03 05:50:26;;;;;;;5.07;3.90;;;;;;;21.21;57.42;99121.81;5148003;28;20417;-67
2022/08/03 05:53:16;;;;;;;5.07;3.95;;;;;;;21.21;58.07;99129.91;5159723;28;20440;-68
2022/08/03 05:56:06;;;;;;;6.88;4.10;;;;;;;21.42;57.32;99135.09;5159144;28;20448;-68
2022/08/03 05:59:05;;;;;;;5.72;3.80;;;;;;;21.50;56.53;99131.34;5158842;28;20160;-67
2022/08/03 06:02:15;;;;;;;6.43;3.70;;;;;;;21.53;56.63;99126.38;5154220;28;20137;-67
2022/08/03 06:05:07;;;;;;;10.38;3.95;;;;;;;21.61;56.63;99136.09;5155529;28;20188;-67
2022/08/03 06:07:57;;;;;;;5.50;3.95;;;;;;;21.90;55.77;99128.53;5168066;28;20057;-69
2022/08/03 06:10:49;;;;;;;6.35;4.10;;;;;;;21.91;55.84;99130.19;5141440;28;20629;-67
2022/08/03 06:13:40;;;;;;;7.15;4.10;;;;;;;21.99;55.78;99138.06;5152649;28;20056;-68
2022/08/03 06:16:30;;;;;;;6.47;3.58;;;;;;;22.14;55.36;99124.25;5142499;28;20073;-66
2022/08/03 06:19:22;;;;;;;6.32;4.35;;;;;;;22.28;55.31;99129.41;5143034;28;20148;-68
2022/08/03 06:22:12;;;;;;;7.75;3.83;;;;;;;22.38;55.74;99131.63;5145084;28;20061;-67
2022/08/03 06:25:05;;;;;;;9.45;3.85;;;;;;;22.56;55.18;99138.19;5158080;28;20076;-67
2022/08/03 06:27:59;;;;;;;9.98;4.45;;;;;;;22.75;54.98;99118.31;5154509;28;20073;-68
2022/08/03 06:30:49;;;;;;;5.35;3.95;;;;;;;;;;5160582;28;20928;-67
2022/08/03 06:33:40;;;;;;;6.78;4.00;;;;;;;23.24;53.13;99130.16;5155394;28;20563;-67
2022/08/03 06:36:50;;;;;;;7.57;4.25;;;;;;;23.20;53.56;99128.97;5156729;28;20173;-67
2022/08/03 06:39:41;;;;;;;10.50;4.18;;;;;;;23.16;54.17;99138.59;5156763;28;20562;-66
2022/08/03 06:42:35;;;;;;;9.50;4.20;;;;;;;23.61;52.29;99124.81;5151482;28;20121;-66
2022/08/03 06:45:28;;;;;;;9.85;4.05;;;;;;;23.51;52.95;99119.06;5147870;28;20119;-68
2022/08/03 06:48:21;;;;;;;8.48;4.32;;;;;;;23.80;52.27;99137.31;5131089;28;20054;-67
2022/08/03 06:51:12;;;;;;;17.13;4.55;;;;;;;23.77;52.41;99118.00;5151816;28;20432;-68
2022/08/03 06:54:02;;;;;;;12.63;4.10;;;;;;;23.91;53.09;99131.16;5148295;28;20065;-68
2022/08/03 06:56:53;;;;;;;8.35;3.67;;;;;;;24.19;51.83;99131.63;5146771;28;20089;-69
2022/08/03 06:59:43;;;;;;;8.25;4.63;;;;;;;24.22;51.98;99117.63;5153921;28;20759;-70
2022/08/03 07:02:54;;;;;;;7.60;3.95;;;;;;;24.38;51.24;99135.97;5147410;28;20069;-69
2022/08/03 07:05:48;;;;;;;4.35;3.55;;;;;;;24.49;51.70;99137.09;5151306;28;20047;-70
2022/08/03 07:08:38;;;;;;;10.20;3.75;;;;;;;24.88;51.57;99134.84;5160895;28;20062;-70
2022/08/03 07:11:29;;;;;;;8.20;3.60;;;;;;;24.97;50.58;99134.25;5150756;28;20516;-69
2022/08/03 07:14:19;;;;;;;6.80;3.10;;;;;;;25.30;48.81;99139.16;5159704;28;20077;-71
2022/08/03 07:17:09;;;;;;;8.95;3.47;;;;;;;25.48;49.29;99134.66;5155847;28;20665;-71
2022/08/03 07:20:04;;;;;;;6.90;3.85;;;;;;;25.81;47.66;99131.31;5161218;28;20080;-69
2022/08/03 07:22:54;;;;;;;;;;;;;;;25.87;47.91;99127.66;5147727;28;20116;-69
2022/08/03 07:25:45;;;;;;;4.85;3.30;;;;;;;26.30;47.19;99128.22;5146880;28;19979;-69
2022/08/03 07:28:36;;;;;;;5.20;3.03;;;;;;;27.28;44.14;99126.94;5147919;28;20212;-70
2022/08/03 07:31:26;;;;;;;8.50;3.03;;;;;;;28.24;43.25;99117.56;5146203;28;20198;-70
2022/08/03 07:34:23;;;;;;;4.63;2.70;;;;;;;29.56;40.40;99128.81;5145306;28;20061;-70
2022/08/03 07:37:13;;;;;;;5.97;3.03;;;;;;;30.22;39.73;99131.06;5148647;28;20073;-69
2022/08/03 07:40:05;;;;;;;7.80;2.83;;;;;;;31.23;37.19;99125.97;5156193;28;20066;-70
2022/08/03 07:42:55;;;;;;;3.95;2.83;;;;;;;31.51;37.25;99130.03;5151729;28;20073;-68
2022/08/03 07:45:45;;;;;;;9.20;2.90;;;;;;;31.76;36.31;99123.69;5160620;28;20049;-67
2022/08/03 07:48:36;;;;;;;8.07;2.80;;;;;;;32.32;34.79;99128.94;5153198;28;20156;-67
2022/08/03 07:51:26;;;;;;;6.95;2.90;;;;;;;32.78;34.34;99130.53;5152708;28;20049;-67
2022/08/03 07:54:16;;;;;;;6.40;2.45;;;;;;;32.90;34.77;99118.09;5146795;28;20089;-69
2022/08/03 07:57:06;;;;;;;4.40;2.80;;;;;;;33.02;34.14;99126.00;5145822;28;20058;-69
2022/08/03 07:59:56;;;;;;;5.32;2.40;;;;;;;33.16;34.05;99096.72;5149271;28;20808;-69
2022/08/03 08:03:01;;;;;;;5.60;2.38;;;;;;;33.88;33.11;99112.47;5147379;28;20395;-71
2022/08/03 08:05:52;;;;;;;2.60;2.40;;;;;;;34.88;31.16;99116.00;5146954;28;20674;-70
2022/08/03 08:08:43;;;;;;;3.75;2.13;;;;;;;34.46;31.88;99103.97;5160981;28;20060;-70
2022/08/03 08:11:33;;;;;;;6.13;2.40;;;;;;;34.97;32.00;99108.69;5161879;28;20440;-71
2022/08/03 08:14:29;;;;;;;3.40;2.40;;;;;;;35.28;30.57;99103.47;5157996;28;20049;-70
2022/08/03 08:17:19;;;;;;;4.47;2.17;;;;;;;35.48;30.71;99110.53;5152085;28;20062;-69
2022/08/03 08:20:11;;;;;;;6.00;1.73;;;;;;;35.99;29.20;99103.16;5157160;28;20061;-71
2022/08/03 08:23:03;;;;;;;4.03;1.83;;;;;;;35.45;29.86;99108.38;5149284;28;20177;-69
2022/08/03 08:26:14;;;;;;;2.28;1.77;;;;;;;34.88;30.49;99102.22;5155525;28;20652;-68
2022/08/03 08:29:05;;;;;;;2.00;1.73;;;;;;;35.06;29.05;99104.13;5154018;28;20062;-67
2022/08/03 08:31:55;;;;;;;4.05;1.98;;;;;;;35.43;29.61;99099.59;5147589;28;20073;-71
2022/08/03 08:34:45;;;;;;;3.25;1.58;;;;;;;35.56;28.95;99097.16;5154133;28;20532;-73
2022/08/03 08:37:36;;;;;;;6.55;1.80;;;;;;;35.91;29.38;99084.59;5157717;28;20053;-70
2022/08/03 08:40:27;;;;;;;4.43;1.70;;;;;;;35.90;29.40;99094.81;5159028;28;20137;-71
2022/08/03 08:43:18;;;;;;;3.63;1.65;;;;;;;36.59;27.03;99099.38;5157726;28;20117;-69
2022/08/03 08:46:13;;;;;;;4.63;1.75;;;;;;;36.68;26.74;99103.81;5161481;28;20833;-72
2022/08/03 08:49:17;;;;;;;1.90;1.60;;;;;;;36.72;27.05;99092.97;5154760;28;20188;-68
2022/08/03 08:52:08;;;;;;;2.67;1.20;;;;;;;36.85;26.70;99094.03;5152322;28;20115;-68
2022/08/03 08:55:20;;;;;;;3.38;1.70;;;;;;;36.62;27.38;99091.28;5150442;28;20053;-64
2022/08/03 08:58:11;;;;;;;5.18;1.70;;;;;;;37.62;26.37;99087.31;5148546;28;20136;-66
2022/08/03 09:01:10;;;;;;;1.65;1.48;;;;;;;38.23;24.76;99091.03;5147588;28;20045;-66
2022/08/03 09:04:01;;;;;;;4.13;1.50;;;;;;;37.74;25.36;99089.44;5147006;28;20649;-66
2022/08/03 09:06:51;;;;;;;5.43;1.40;;;;;;;38.02;24.92;99090.03;5148458;28;20069;-67
2022/08/03 09:10:02;;;;;;;1.40;1.10;;;;;;;37.92;25.78;99087.59;5149471;28;21834;-67
2022/08/03 09:13:01;;;;;;;2.78;1.33;;;;;;;37.59;24.44;99093.50;5143309;28;20599;-68
2022/08/03 09:16:18;;;;;;;1.73;1.35;;;;;;;37.72;24.60;99089.78;5145444;28;20069;-67
2022/08/03 09:19:12;;;;;;;5.15;1.50;;;;;;;38.16;24.80;99082.41;5143379;28;20054;-71
2022/08/03 09:22:08;;;;;;;5.35;1.48;;;;;;;38.27;24.88;99083.69;5146243;28;20081;-67
2022/08/03 09:25:04;;;;;;;4.32;1.90;;;;;;;38.58;23.72;99082.75;5151338;28;20069;-68
2022/08/03 09:28:16;;;;;;;2.95;1.40;;;;;;;37.67;24.77;99065.03;5156526;28;20152;-70
2022/08/03 09:31:36;;;;;;;5.25;1.63;;;;;;;37.94;23.51;99069.50;5152065;28;20062;-68
2022/08/03 09:34:29;;;;;;;1.42;1.33;;;;;;;38.26;24.45;99061.88;5152566;28;20057;-68
2022/08/03 09:37:21;;;;;;;3.85;1.30;;;;;;;38.42;23.67;99068.59;5161746;28;20050;-66
2022/08/03 09:40:35;;;;;;;6.72;1.38;;;;;;;38.72;25.24;99066.75;5158132;28;20191;-68
2022/08/03 09:43:26;;;;;;;2.30;1.58;;;;;;;39.19;23.74;99069.59;5156815;28;20050;-68
2022/08/03 09:46:17;;;;;;;3.40;1.52;;;;;;;39.41;23.66;99076.06;5151943;28;20042;-67
2022/08/03 09:49:11;;;;;;;2.92;1.20;;;;;;;39.20;23.26;99070.38;5146979;28;20053;-68
2022/08/03 09:52:13;;;;;;;4.45;1.60;;;;;;;39.22;23.66;99052.28;5143321;28;20076;-68
2022/08/03 09:55:23;;;;;;;3.80;1.33;;;;;;;39.27;23.51;99056.03;5152751;28;20046;-69
2022/08/03 09:58:45;;;;;;;5.25;1.10;;;;;;;38.85;22.68;99050.31;5152850;28;20052;-69
2022/08/03 10:01:37;;;;;;;2.08;1.30;;;;;;;39.13;22.01;99050.69;5151910;28;20647;-69
2022/08/03 10:04:28;;;;;;;4.20;2.15;;;;;;;39.44;23.18;99054.03;5151520;28;20050;-69
2022/08/03 10:07:21;;;;;;;3.80;1.35;;;;;;;39.86;22.67;99050.53;5155233;28;20066;-67
2022/08/03 10:10:12;;;;;;;4.18;1.25;;;;;;;39.79;22.88;99047.47;5151736;28;20072;-66
2022/08/03 10:13:21;;;;;;;1.60;1.30;;;;;;;39.96;21.69;99040.97;5155037;28;20643;-67
2022/08/03 10:16:13;;;;;;;1.88;1.30;;;;;;;40.21;21.36;99050.31;5158627;28;20077;-67
2022/08/03 10:19:15;;;;;;;1.42;1.27;;;;;;;40.38;21.83;99036.25;5159221;28;20112;-67
2022/08/03 10:22:22;;;;;;;1.35;1.25;;;;;;;40.55;22.43;99038.06;5158243;28;20108;-67
2022/08/03 10:25:15;;;;;;;4.10;1.20;;;;;;;40.19;21.13;99038.72;5158377;28;20069;-67
2022/08/03 10:28:10;;;;;;;3.00;1.27;;;;;;;40.12;20.86;99034.47;5153377;28;20074;-67
2022/08/03 10:31:03;;;;;;;2.72;1.30;;;;;;;40.21;21.40;99017.78;5147863;28;20085;-67
2022/08/03 10:33:57;;;;;;;2.17;1.40;;;;;;;40.23;21.28;99023.78;5142737;28;20060;-67
2022/08/03 10:36:50;;;;;;;1.80;1.20;;;;;;;39.87;22.16;99028.00;5143584;28;20057;-68
2022/08/03 10:39:52;;;;;;;1.30;1.20;;;;;;;39.66;21.90;99022.38;5147323;28;20056;-67
2022/08/03 10:42:44;;;;;;;1.60;1.30;;;;;;;39.15;21.97;99010.41;5146677;28;20431;-68
2022/08/03 10:45:40;;;;;;;2.22;1.33;;;;;;;38.39;23.22;99013.84;5147096;28;20094;-69
2022/08/03 10:48:31;;;;;;;1.50;1.30;;;;;;;38.96;23.19;99016.34;5139467;28;20062;-72
2022/08/03 10:51:21;;;;;;;1.83;1.50;;;;;;;38.29;23.69;99014.97;5164527;28;20069;-69
2022/08/03 10:54:34;;;;;;;1.65;1.40;;;;;;;38.49;23.61;99007.97;5155191;28;20054;-68
2022/08/03 10:57:44;;;;;;;1.40;1.30;;;;;;;39.16;22.85;98997.34;5152803;28;20054;-71
2022/08/03 11:00:48;;;;;;;3.00;1.50;;;;;;;38.35;23.51;98999.00;5143732;28;20069;-69
2022/08/03 11:04:15;;;;;;;2.05;1.52;;;;;;;38.01;23.10;98997.84;5151383;28;20054;-70
2022/08/03 11:07:23;;;;;;;3.03;1.30;;;;;;;38.31;24.05;98996.06;5139595;28;20069;-68
2022/08/03 11:10:30;;;;;;;1.80;1.30;;;;;;;37.92;24.51;98999.84;5141442;28;20074;-68
2022/08/03 11:13:23;;;;;;;1.77;1.20;;;;;;;38.37;23.44;98999.50;5161150;28;20052;-68
2022/08/03 11:16:25;;;;;;;2.22;1.48;;;;;;;37.96;24.48;98994.47;5148092;28;20799;-66
2022/08/03 11:19:21;;;;;;;1.75;1.20;;;;;;;38.05;23.52;98990.56;5162167;28;20046;-66
2022/08/03 11:22:12;;;;;;;3.33;1.55;;;;;;;38.16;23.73;98993.78;5169749;28;20691;-68
2022/08/03 11:25:03;;;;;;;3.15;1.42;;;;;;;38.05;25.31;98989.75;5157650;28;20104;-71
2022/08/03 11:28:39;;;;;;;2.08;1.38;;;;;;;37.68;23.08;98986.41;5168567;28;20149;-67
2022/08/03 11:31:29;;;;;;;3.42;1.20;;;;;;;38.12;24.44;98981.75;5169820;28;20416;-66
2022/08/03 11:35:07;;;;;;;2.00;1.40;;;;;;;37.80;23.42;98983.00;5164150;28;20061;-68
2022/08/03 11:37:57;;;;;;;1.58;1.35;;;;;;;37.75;23.65;98975.69;5166687;28;20050;-67
2022/08/03 11:40:53;;;;;;;3.28;1.38;;;;;;;37.04;24.19;98980.53;5174514;28;20049;-66
2022/08/03 11:43:44;;;;;;;1.45;1.27;;;;;;;37.42;24.54;98975.28;5166452;28;20105;-67
2022/08/03 11:46:38;;;;;;;3.67;1.42;;;;;;;37.42;23.90;98969.75;5160543;28;20192;-67
2022/08/03 11:49:29;;;;;;;2.28;1.40;;;;;;;37.51;25.21;98972.56;5152000;28;20050;-69
2022/08/03 11:52:19;;;;;;;1.65;1.23;;;;;;;37.64;24.79;98971.59;5148015;28;20139;-68
2022/08/03 11:55:20;;;;;;;1.80;1.70;;;;;;;36.77;25.06;98967.72;5150599;28;20500;-69
2022/08/03 11:58:16;;;;;;;3.35;1.50;;;;;;;37.34;23.57;98967.78;5146456;28;20083;-70
2022/08/03 12:01:26;;;;;;;1.30;1.20;;;;;;;36.53;24.60;98966.13;5148185;28;20057;-68
2022/08/03 12:04:16;;;;;;;2.65;1.52;;;;;;;36.11;25.59;98964.66;5147869;28;20500;-68
2022/08/03 12:07:06;;;;;;;1.88;1.33;;;;;;;36.90;25.33;98958.50;5149728;28;20065;-66
2022/08/03 12:10:27;;;;;;;2.80;1.30;;;;;;;36.87;24.62;98959.13;5160458;28;20062;-65
2022/08/03 12:13:19;;;;;;;1.65;1.30;;;;;;;36.52;25.66;98956.19;5147154;28;20065;-66
2022/08/03 12:16:29;;;;;;;2.30;1.40;;;;;;;36.68;24.86;98946.38;5153214;28;20706;-68
2022/08/03 12:19:20;;;;;;;1.95;1.20;;;;;;;36.46;25.24;98949.97;5152334;28;20108;-69
2022/08/03 12:22:10;;;;;;;1.65;1.25;;;;;;;36.76;25.01;98947.56;5158996;28;20062;-66
2022/08/03 12:25:00;;;;;;;3.90;1.55;;;;;;;36.20;24.78;98958.09;5163299;28;20543;-66
2022/08/03 12:27:52;;;;;;;2.20;1.48;;;;;;;36.11;24.93;98954.44;5160038;28;20057;-66
2022/08/03 12:30:44;;;;;;;2.47;1.38;;;;;;;36.37;23.88;98951.06;5159344;28;20100;-66
2022/08/03 12:34:03;;;;;;;1.88;1.45;;;;;;;35.64;25.33;98945.59;5147881;28;20057;-66
2022/08/03 12:36:55;;;;;;;1.95;1.38;;;;;;;35.84;24.96;98944.31;5161627;28;20050;-66
2022/08/03 12:39:53;;;;;;;1.40;1.30;;;;;;;36.08;25.80;98944.03;5147259;28;20065;-67
2022/08/03 12:42:54;;;;;;;2.20;1.30;;;;;;;36.21;24.17;98942.34;5149218;28;20120;-65
2022/08/03 12:45:44;;;;;;;1.63;1.40;;;;;;;36.19;23.97;98939.91;5140604;28;20124;-66
2022/08/03 12:48:35;;;;;;;1.30;1.20;;;;;;;36.37;23.32;98928.97;5145344;28;20206;-65
2022/08/03 12:51:30;;;;;;;1.60;1.50;;;;;;;35.77;25.08;98927.38;5142075;28;20058;-65
2022/08/03 12:54:28;;;;;;;3.97;1.30;;;;;;;36.16;24.50;98912.09;5143505;28;20136;-66
2022/08/03 12:57:18;;;;;;;1.33;1.23;;;;;;;36.30;22.63;98925.84;5144506;28;20112;-66
2022/08/03 13:00:17;;;;;;;2.00;1.30;;;;;;;35.96;23.22;98922.50;5152018;28;20068;-66
2022/08/03 13:03:18;;;;;;;1.30;1.20;;;;;;;35.83;22.88;98926.13;5145002;28;20062;-66
2022/08/03 13:06:29;;;;;;;3.47;1.23;;;;;;;35.56;23.98;98877.38;5143531;28;20054;-66
2022/08/03 13:09:19;;;;;;;2.50;1.30;;;;;;;35.63;23.50;98918.31;5151645;28;20062;-65
2022/08/03 13:12:16;;;;;;;2.22;1.30;;;;;;;35.40;23.06;98915.50;5151230;28;20086;-66
2022/08/03 13:15:07;;;;;;;1.63;1.48;;;;;;;35.88;24.22;98912.19;5151968;28;20050;-66
2022/08/03 13:17:58;;;;;;;3.33;1.70;;;;;;;35.05;25.37;98909.63;5162037;28;20056;-65
2022/08/03 13:20:49;;;;;;;4.18;1.38;;;;;;;35.65;24.69;98911.34;5157093;28;20052;-66
2022/08/03 13:23:39;;;;;;;1.40;1.30;;;;;;;35.78;24.72;98917.16;5143127;28;20050;-66
2022/08/03 13:26:29;;;;;;;4.57;1.58;;;;;;;35.60;24.31;98911.50;5152620;28;20085;-66
2022/08/03 13:29:20;;;;;;;1.60;1.13;;;;;;;35.75;24.02;98902.03;5149150;28;20064;-66
2022/08/03 13:32:10;;;;;;;2.95;1.20;;;;;;;35.95;23.80;98911.75;5149058;28;20606;-66
2022/08/03 13:35:01;;;;;;;1.65;1.42;;;;;;;35.80;23.65;98903.88;5156867;28;20421;-66
2022/08/03 13:37:52;;;;;;;1.50;1.40;;;;;;;35.64;24.35;98911.69;5175628;28;20245;-66
2022/08/03 13:40:42;;;;;;;3.80;1.30;;;;;;;35.35;24.89;98912.03;5161688;28;20058;-66
2022/08/03 13:43:35;;;;;;;2.03;1.30;;;;;;;35.36;24.86;98906.19;5168971;28;20103;-66
2022/08/03 13:46:26;;;;;;;1.42;1.23;;;;;;;35.30;24.55;98905.50;5158713;28;20504;-66
2022/08/03 13:49:16;;;;;;;17.85;3.13;;;;;;;35.43;25.33;98903.84;5151354;28;20061;-66
2022/08/03 13:52:07;;;;;;;6.30;1.67;;;;;;;35.43;25.21;98900.25;5155169;28;20061;-66